Yorktown Express — WDD6127 — position and weather

sailwx.info

Track history (hours):
 
Tides and Currents Weather Stations Pressure Air Temp Water Temp Dewpoint Dewpoint Depression Visibility Wind Speed Wind Dir Waves Ship Positions

Yorktown Express

Owner: Marine Transport Management, Inc., Jacksonville, FL. More information available from US FCC via Universal Licensing System and Coast Guard Vessel Documentation Center.

Last reported at 2016-May-31 12:00 UTC. Time now 2016-Jun-01 01:32 UTC.
Position N 43°18' W 040°36'.

Type: Ship. MMSI: 367168650.

Wind from 350 at 34 knots

Barometer 1013.1 mb
Air temperature 12.0 ° C
Visibility: greater than 5.4 NM
Dewpoint 2.9 ° C
Water temperature 20.0 ° C

Date/timePositionNaut miles runAvg speedWind from/ knotsBaromVisibWave heightAir tempDewpointWater temp
2016-May-31 12:00N 43°18' W 040°36'8514.2 350 / 341013.1 5.4 12.0 2.920.0
2016-May-31 06:00N 43°00' W 042°30'25614.2 320 / 381014.310.8 2.013.0 9.120.0
2016-May-30 12:00N 41°30' W 047°54'10116.8 360 / 331021.227.0 3.511.0 1.514.0
2016-May-30 06:00N 41°12' W 050°06'10517.4 350 / 301021.0 5.4 1.510.0 7.918.0
2016-May-30 00:00N 41°00' W 052°24'11519.1 350 / 261021.810.8 11.0-1.822.0
2016-May-29 18:00N 40°42' W 054°54'21818.1 360 / 241023.010.8 2.513.012.118.0
2016-May-29 06:00N 40°06' W 059°36'12220.3 290 / 231019.810.8 2.022.018.026.0
2016-May-29 00:00N 39°42' W 062°12'12320.6 270 / 271023.210.8 2.524.015.828.0
2016-May-28 18:00N 39°00' W 064°42'11418.9 260 / 131024.510.8 0.530.019.424.0
2016-May-28 12:00N 38°24' W 067°00'11719.5 200 / 61024.927.0 1.525.018.824.0
2016-May-28 06:00N 37°54' W 069°24'13222.0 200 / 111023.210.8 1.023.016.528.0
2016-May-28 00:00N 37°24' W 072°06'17519.7 180 / 151022.010.8 27.017.630.0
2016-May-27 15:07N 36°51' W 075°41'916.5
2016-May-27 14:34N 36°52' W 075°53'1515.1
2016-May-27 13:33N 36°59' W 076°10'1312.4
2016-May-27 12:33N 36°57' W 076°25'1 1.1
2016-May-27 11:31N 36°58' W 076°26'0 0.0
2016-May-27 10:28N 36°58' W 076°26'0 0.0
2016-May-27 09:31N 36°58' W 076°26'0 0.0
2016-May-27 08:31N 36°58' W 076°26'0 0.0
2016-May-27 07:31N 36°58' W 076°26'0 0.0
2016-May-27 06:28N 36°58' W 076°26'0 0.0
2016-May-27 05:31N 36°58' W 076°26'0 0.0
2016-May-27 04:31N 36°58' W 076°26'0 0.0
2016-May-27 03:31N 36°58' W 076°26'0 0.0
2016-May-27 02:28N 36°58' W 076°26'0 0.0
2016-May-27 01:31N 36°58' W 076°26'0 0.0
2016-May-27 00:31N 36°58' W 076°26'0 0.0
2016-May-26 23:25N 36°58' W 076°26'0 0.0
2016-May-26 22:31N 36°58' W 076°26'0 0.0
2016-May-26 21:31N 36°58' W 076°26'0 0.0
2016-May-26 20:31N 36°58' W 076°26'0 0.0
2016-May-26 19:28N 36°58' W 076°26'0 0.0
2016-May-26 18:31N 36°58' W 076°26'0 0.0
2016-May-26 17:31N 36°58' W 076°26'0 0.0
2016-May-26 16:31N 36°58' W 076°26'0 0.0
2016-May-26 15:31N 36°58' W 076°26'0 0.0
2016-May-26 14:31N 36°58' W 076°26'0 0.0
2016-May-26 13:31N 36°58' W 076°26'0 0.0
2016-May-26 12:31N 36°58' W 076°26'0 0.0
2016-May-26 11:31N 36°58' W 076°26'0 0.0
2016-May-26 10:31N 36°58' W 076°26'0 0.0
2016-May-26 09:31N 36°58' W 076°26'0 0.0
2016-May-26 08:31N 36°58' W 076°26'0 0.0
2016-May-26 07:31N 36°58' W 076°26'0 0.0
2016-May-26 06:31N 36°58' W 076°26'0 0.0
2016-May-26 05:31N 36°58' W 076°26'5 4.9
2016-May-26 04:33N 36°57' W 076°20'2 1.8
2016-May-26 03:31N 36°55' W 076°20'0 0.0
2016-May-26 02:31N 36°55' W 076°20'0 0.0
2016-May-26 01:31N 36°55' W 076°20'0 0.0
2016-May-26 00:31N 36°55' W 076°20'0 0.0
2016-May-25 23:31N 36°55' W 076°20'0 0.0
2016-May-25 22:28N 36°55' W 076°20'0 0.0
2016-May-25 21:31N 36°55' W 076°20'0 0.0
2016-May-25 20:31N 36°55' W 076°20'0 0.0
2016-May-25 19:31N 36°55' W 076°20'0 0.0
2016-May-25 18:31N 36°55' W 076°20'0 0.0
2016-May-25 17:31N 36°55' W 076°20'0 0.0
2016-May-25 16:31N 36°55' W 076°20'0 0.0
2016-May-25 15:31N 36°55' W 076°20'0 0.0
2016-May-25 14:31N 36°55' W 076°20'0 0.0
2016-May-25 13:31N 36°55' W 076°20'0 0.0
2016-May-25 12:31N 36°55' W 076°20'0 0.0
2016-May-25 11:31N 36°55' W 076°20'3 2.6
2016-May-25 10:33N 36°58' W 076°20'8 7.4
2016-May-25 09:32N 36°60' W 076°11'9 9.1
2016-May-25 08:33N 36°57' W 076°00'9 9.4
2016-May-25 07:33N 36°52' W 075°50'10 9.5
2016-May-25 06:33N 36°45' W 075°43'36813.2
2016-May-24 02:33N 31°57' W 080°21'1717.2
2016-May-24 01:33N 31°58' W 080°42'1211.7
2016-May-24 00:34N 32°02' W 080°54'8 8.1
2016-May-23 23:34N 32°05' W 081°04'5 4.5
2016-May-23 22:32N 32°07' W 081°08'0 0.0
2016-May-23 21:32N 32°07' W 081°08'0 0.0
2016-May-23 20:33N 32°07' W 081°08'0 0.0
2016-May-23 19:32N 32°07' W 081°08'0 0.0
2016-May-23 18:32N 32°07' W 081°08'0 0.0
2016-May-23 17:32N 32°07' W 081°08'0 0.0
2016-May-23 16:32N 32°07' W 081°08'0 0.0
2016-May-23 15:32N 32°07' W 081°08'0 0.0
2016-May-23 14:32N 32°07' W 081°08'0 0.0
2016-May-23 13:32N 32°07' W 081°08'0 0.0
2016-May-23 12:32N 32°07' W 081°08'0 0.0
2016-May-23 11:29N 32°07' W 081°08'0 0.1
2016-May-23 10:33N 32°08' W 081°08'6 5.9
2016-May-23 09:33N 32°05' W 081°02'6 6.4
2016-May-23 08:33N 32°02' W 080°55'1010.5
2016-May-23 07:34N 31°58' W 080°44'8 8.4
2016-May-23 06:33N 31°52' W 080°36'1211.5
2016-May-23 05:33N 31°42' W 080°29'28720.5
2016-May-22 15:34N 26°58' W 079°43'2323.1
2016-May-22 14:33N 26°35' W 079°45'2323.5
2016-May-22 13:33N 26°12' W 079°48'2423.8
2016-May-22 12:33N 25°48' W 079°50'2423.2
2016-May-22 11:31N 25°24' W 079°56'6521.8
2016-May-22 08:32N 24°30' W 080°36'4421.7
2016-May-22 06:31N 24°14' W 081°20'  
Track history (hours):
 
Tides and Currents Weather Stations Pressure Air Temp Water Temp Dewpoint Dewpoint Depression Visibility Wind Speed Wind Dir Waves Ship Positions

Yorktown Express

Owner: Marine Transport Management, Inc., Jacksonville, FL. More information available from US FCC via Universal Licensing System and Coast Guard Vessel Documentation Center.

Last reported at 2016-May-31 12:00 UTC. Time now 2016-Jun-01 01:32 UTC.
Position N 43°18' W 040°36'.

Type: Ship. MMSI: 367168650.

Wind from 350 at 34 knots

Barometer 1013.1 mb
Air temperature 12.0 ° C
Visibility: greater than 5.4 NM
Dewpoint 2.9 ° C
Water temperature 20.0 ° C

Date/timePositionNaut miles runAvg speedWind from/ knotsBaromVisibWave heightAir tempDewpointWater temp
2016-May-31 12:00N 43°18' W 040°36'8514.2 350 / 341013.1 5.4 12.0 2.920.0
2016-May-31 06:00N 43°00' W 042°30'25614.2 320 / 381014.310.8 2.013.0 9.120.0
2016-May-30 12:00N 41°30' W 047°54'10116.8 360 / 331021.227.0 3.511.0 1.514.0
2016-May-30 06:00N 41°12' W 050°06'10517.4 350 / 301021.0 5.4 1.510.0 7.918.0
2016-May-30 00:00N 41°00' W 052°24'11519.1 350 / 261021.810.8 11.0-1.822.0
2016-May-29 18:00N 40°42' W 054°54'21818.1 360 / 241023.010.8 2.513.012.118.0
2016-May-29 06:00N 40°06' W 059°36'12220.3 290 / 231019.810.8 2.022.018.026.0
2016-May-29 00:00N 39°42' W 062°12'12320.6 270 / 271023.210.8 2.524.015.828.0
2016-May-28 18:00N 39°00' W 064°42'11418.9 260 / 131024.510.8 0.530.019.424.0
2016-May-28 12:00N 38°24' W 067°00'11719.5 200 / 61024.927.0 1.525.018.824.0
2016-May-28 06:00N 37°54' W 069°24'13222.0 200 / 111023.210.8 1.023.016.528.0
2016-May-28 00:00N 37°24' W 072°06'17519.7 180 / 151022.010.8 27.017.630.0
2016-May-27 15:07N 36°51' W 075°41'916.5
2016-May-27 14:34N 36°52' W 075°53'1515.1
2016-May-27 13:33N 36°59' W 076°10'1312.4
2016-May-27 12:33N 36°57' W 076°25'1 1.1
2016-May-27 11:31N 36°58' W 076°26'0 0.0
2016-May-27 10:28N 36°58' W 076°26'0 0.0
2016-May-27 09:31N 36°58' W 076°26'0 0.0
2016-May-27 08:31N 36°58' W 076°26'0 0.0
2016-May-27 07:31N 36°58' W 076°26'0 0.0
2016-May-27 06:28N 36°58' W 076°26'0 0.0
2016-May-27 05:31N 36°58' W 076°26'0 0.0
2016-May-27 04:31N 36°58' W 076°26'0 0.0
2016-May-27 03:31N 36°58' W 076°26'0 0.0
2016-May-27 02:28N 36°58' W 076°26'0 0.0
2016-May-27 01:31N 36°58' W 076°26'0 0.0
2016-May-27 00:31N 36°58' W 076°26'0 0.0
2016-May-26 23:25N 36°58' W 076°26'0 0.0
2016-May-26 22:31N 36°58' W 076°26'0 0.0
2016-May-26 21:31N 36°58' W 076°26'0 0.0
2016-May-26 20:31N 36°58' W 076°26'0 0.0
2016-May-26 19:28N 36°58' W 076°26'0 0.0
2016-May-26 18:31N 36°58' W 076°26'0 0.0
2016-May-26 17:31N 36°58' W 076°26'0 0.0
2016-May-26 16:31N 36°58' W 076°26'0 0.0
2016-May-26 15:31N 36°58' W 076°26'0 0.0
2016-May-26 14:31N 36°58' W 076°26'0 0.0
2016-May-26 13:31N 36°58' W 076°26'0 0.0
2016-May-26 12:31N 36°58' W 076°26'0 0.0
2016-May-26 11:31N 36°58' W 076°26'0 0.0
2016-May-26 10:31N 36°58' W 076°26'0 0.0
2016-May-26 09:31N 36°58' W 076°26'0 0.0
2016-May-26 08:31N 36°58' W 076°26'0 0.0
2016-May-26 07:31N 36°58' W 076°26'0 0.0
2016-May-26 06:31N 36°58' W 076°26'0 0.0
2016-May-26 05:31N 36°58' W 076°26'5 4.9
2016-May-26 04:33N 36°57' W 076°20'2 1.8
2016-May-26 03:31N 36°55' W 076°20'0 0.0
2016-May-26 02:31N 36°55' W 076°20'0 0.0
2016-May-26 01:31N 36°55' W 076°20'0 0.0
2016-May-26 00:31N 36°55' W 076°20'0 0.0
2016-May-25 23:31N 36°55' W 076°20'0 0.0
2016-May-25 22:28N 36°55' W 076°20'0 0.0
2016-May-25 21:31N 36°55' W 076°20'0 0.0
2016-May-25 20:31N 36°55' W 076°20'0 0.0
2016-May-25 19:31N 36°55' W 076°20'0 0.0
2016-May-25 18:31N 36°55' W 076°20'0 0.0
2016-May-25 17:31N 36°55' W 076°20'0 0.0
2016-May-25 16:31N 36°55' W 076°20'0 0.0
2016-May-25 15:31N 36°55' W 076°20'0 0.0
2016-May-25 14:31N 36°55' W 076°20'0 0.0
2016-May-25 13:31N 36°55' W 076°20'0 0.0
2016-May-25 12:31N 36°55' W 076°20'0 0.0
2016-May-25 11:31N 36°55' W 076°20'3 2.6
2016-May-25 10:33N 36°58' W 076°20'8 7.4
2016-May-25 09:32N 36°60' W 076°11'9 9.1
2016-May-25 08:33N 36°57' W 076°00'9 9.4
2016-May-25 07:33N 36°52' W 075°50'10 9.5
2016-May-25 06:33N 36°45' W 075°43'36813.2
2016-May-24 02:33N 31°57' W 080°21'1717.2
2016-May-24 01:33N 31°58' W 080°42'1211.7
2016-May-24 00:34N 32°02' W 080°54'8 8.1
2016-May-23 23:34N 32°05' W 081°04'5 4.5
2016-May-23 22:32N 32°07' W 081°08'0 0.0
2016-May-23 21:32N 32°07' W 081°08'0 0.0
2016-May-23 20:33N 32°07' W 081°08'0 0.0
2016-May-23 19:32N 32°07' W 081°08'0 0.0
2016-May-23 18:32N 32°07' W 081°08'0 0.0
2016-May-23 17:32N 32°07' W 081°08'0 0.0
2016-May-23 16:32N 32°07' W 081°08'0 0.0
2016-May-23 15:32N 32°07' W 081°08'0 0.0
2016-May-23 14:32N 32°07' W 081°08'0 0.0
2016-May-23 13:32N 32°07' W 081°08'0 0.0
2016-May-23 12:32N 32°07' W 081°08'0 0.0
2016-May-23 11:29N 32°07' W 081°08'0 0.1
2016-May-23 10:33N 32°08' W 081°08'6 5.9
2016-May-23 09:33N 32°05' W 081°02'6 6.4
2016-May-23 08:33N 32°02' W 080°55'1010.5
2016-May-23 07:34N 31°58' W 080°44'8 8.4
2016-May-23 06:33N 31°52' W 080°36'1211.5
2016-May-23 05:33N 31°42' W 080°29'28720.5
2016-May-22 15:34N 26°58' W 079°43'2323.1
2016-May-22 14:33N 26°35' W 079°45'2323.5
2016-May-22 13:33N 26°12' W 079°48'2423.8
2016-May-22 12:33N 25°48' W 079°50'2423.2
2016-May-22 11:31N 25°24' W 079°56'6521.8
2016-May-22 08:32N 24°30' W 080°36'4421.7
2016-May-22 06:31N 24°14' W 081°20'  

Dump ship's entire track history